sensor_id;sensor_type;location;lat;lon;timestamp;temperature;humidity
32139;DHT22;18644;48.700;9.210;2022-12-20T00:01:27;5.40;66.70
32139;DHT22;18644;48.700;9.210;2022-12-20T00:03:58;5.40;66.80
32139;DHT22;18644;48.700;9.210;2022-12-20T00:06:28;5.40;66.90
32139;DHT22;18644;48.700;9.210;2022-12-20T00:08:57;5.40;66.90
32139;DHT22;18644;48.700;9.210;2022-12-20T00:11:25;5.40;67.00
32139;DHT22;18644;48.700;9.210;2022-12-20T00:13:53;5.30;66.70
32139;DHT22;18644;48.700;9.210;2022-12-20T00:16:22;5.30;66.70
32139;DHT22;18644;48.700;9.210;2022-12-20T00:18:51;5.30;66.70
32139;DHT22;18644;48.700;9.210;2022-12-20T00:21:20;5.30;66.70
32139;DHT22;18644;48.700;9.210;2022-12-20T00:23:47;5.30;66.60
32139;DHT22;18644;48.700;9.210;2022-12-20T00:26:18;5.20;66.40
32139;DHT22;18644;48.700;9.210;2022-12-20T00:28:46;5.20;66.40
32139;DHT22;18644;48.700;9.210;2022-12-20T00:31:15;5.20;66.30
32139;DHT22;18644;48.700;9.210;2022-12-20T00:33:45;5.20;66.20
32139;DHT22;18644;48.700;9.210;2022-12-20T00:36:14;5.10;66.10
32139;DHT22;18644;48.700;9.210;2022-12-20T00:38:45;5.10;66.10
32139;DHT22;18644;48.700;9.210;2022-12-20T00:41:14;5.10;66.00
32139;DHT22;18644;48.700;9.210;2022-12-20T00:43:42;5.00;65.90
32139;DHT22;18644;48.700;9.210;2022-12-20T00:46:11;5.00;66.00
32139;DHT22;18644;48.700;9.210;2022-12-20T00:48:39;4.90;66.00
32139;DHT22;18644;48.700;9.210;2022-12-20T00:51:08;4.90;66.10
32139;DHT22;18644;48.700;9.210;2022-12-20T00:53:37;4.90;66.10
32139;DHT22;18644;48.700;9.210;2022-12-20T00:56:06;4.90;66.20
32139;DHT22;18644;48.700;9.210;2022-12-20T00:58:35;4.90;66.40
32139;DHT22;18644;48.700;9.210;2022-12-20T01:01:04;4.80;66.60
32139;DHT22;18644;48.700;9.210;2022-12-20T01:03:31;4.90;66.80
32139;DHT22;18644;48.700;9.210;2022-12-20T01:06:00;4.90;67.10
32139;DHT22;18644;48.700;9.210;2022-12-20T01:08:29;4.90;68.10
32139;DHT22;18644;48.700;9.210;2022-12-20T01:10:58;4.90;67.40
32139;DHT22;18644;48.700;9.210;2022-12-20T01:13:27;4.90;67.50
32139;DHT22;18644;48.700;9.210;2022-12-20T01:15:54;4.90;67.60
32139;DHT22;18644;48.700;9.210;2022-12-20T01:18:22;4.90;67.70
32139;DHT22;18644;48.700;9.210;2022-12-20T01:20:48;5.00;67.80
32139;DHT22;18644;48.700;9.210;2022-12-20T01:23:15;5.00;67.80
32139;DHT22;18644;48.700;9.210;2022-12-20T01:25:42;5.00;67.70
32139;DHT22;18644;48.700;9.210;2022-12-20T01:28:09;5.00;67.60
32139;DHT22;18644;48.700;9.210;2022-12-20T01:30:40;5.00;67.50
32139;DHT22;18644;48.700;9.210;2022-12-20T01:33:07;5.00;67.40
32139;DHT22;18644;48.700;9.210;2022-12-20T01:35:34;5.00;67.40
32139;DHT22;18644;48.700;9.210;2022-12-20T01:38:01;5.00;67.50
32139;DHT22;18644;48.700;9.210;2022-12-20T01:40:28;5.00;67.50
32139;DHT22;18644;48.700;9.210;2022-12-20T01:42:55;5.00;67.30
32139;DHT22;18644;48.700;9.210;2022-12-20T01:45:26;5.00;67.30
32139;DHT22;18644;48.700;9.210;2022-12-20T01:47:55;5.00;67.10
32139;DHT22;18644;48.700;9.210;2022-12-20T01:50:23;5.00;67.10
32139;DHT22;18644;48.700;9.210;2022-12-20T01:52:51;5.00;67.00
32139;DHT22;18644;48.700;9.210;2022-12-20T01:55:21;5.00;67.00
32139;DHT22;18644;48.700;9.210;2022-12-20T01:57:53;5.00;67.00
32139;DHT22;18644;48.700;9.210;2022-12-20T02:00:21;5.00;67.20
32139;DHT22;18644;48.700;9.210;2022-12-20T02:02:49;5.00;67.50
32139;DHT22;18644;48.700;9.210;2022-12-20T02:05:21;4.90;67.30
32139;DHT22;18644;48.700;9.210;2022-12-20T02:07:51;4.90;67.40
32139;DHT22;18644;48.700;9.210;2022-12-20T02:10:22;4.90;67.50
32139;DHT22;18644;48.700;9.210;2022-12-20T02:12:55;4.90;67.50
32139;DHT22;18644;48.700;9.210;2022-12-20T02:15:34;4.90;67.50
32139;DHT22;18644;48.700;9.210;2022-12-20T02:18:15;4.90;67.50
32139;DHT22;18644;48.700;9.210;2022-12-20T02:24:21;4.90;67.50
32139;DHT22;18644;48.700;9.210;2022-12-20T02:30:15;4.90;67.60
32139;DHT22;18644;48.700;9.210;2022-12-20T02:32:53;5.00;67.60
32139;DHT22;18644;48.700;9.210;2022-12-20T02:35:26;4.90;67.70
32139;DHT22;18644;48.700;9.210;2022-12-20T02:37:56;5.00;67.90
32139;DHT22;18644;48.700;9.210;2022-12-20T02:40:27;5.00;68.00
32139;DHT22;18644;48.700;9.210;2022-12-20T02:42:58;5.00;68.00
32139;DHT22;18644;48.700;9.210;2022-12-20T02:45:31;5.00;67.80
32139;DHT22;18644;48.700;9.210;2022-12-20T02:48:01;5.00;67.60
32139;DHT22;18644;48.700;9.210;2022-12-20T02:50:31;5.00;67.70
32139;DHT22;18644;48.700;9.210;2022-12-20T02:53:02;5.00;68.00
32139;DHT22;18644;48.700;9.210;2022-12-20T02:55:38;5.00;68.40
32139;DHT22;18644;48.700;9.210;2022-12-20T02:58:15;5.00;67.60
32139;DHT22;18644;48.700;9.210;2022-12-20T03:00:48;5.00;67.70
32139;DHT22;18644;48.700;9.210;2022-12-20T03:03:16;5.00;67.70
32139;DHT22;18644;48.700;9.210;2022-12-20T03:05:51;5.00;67.70
32139;DHT22;18644;48.700;9.210;2022-12-20T03:08:19;5.00;67.70
32139;DHT22;18644;48.700;9.210;2022-12-20T03:10:47;5.00;67.70
32139;DHT22;18644;48.700;9.210;2022-12-20T03:13:15;5.00;67.70
32139;DHT22;18644;48.700;9.210;2022-12-20T03:15:42;5.00;67.70
32139;DHT22;18644;48.700;9.210;2022-12-20T03:18:10;5.00;67.70
32139;DHT22;18644;48.700;9.210;2022-12-20T03:20:38;5.00;67.70
32139;DHT22;18644;48.700;9.210;2022-12-20T03:23:05;5.00;67.70
32139;DHT22;18644;48.700;9.210;2022-12-20T03:25:32;5.10;67.70
32139;DHT22;18644;48.700;9.210;2022-12-20T03:27:59;5.10;67.80
32139;DHT22;18644;48.700;9.210;2022-12-20T03:30:26;5.10;67.80
32139;DHT22;18644;48.700;9.210;2022-12-20T03:32:53;5.00;67.80
32139;DHT22;18644;48.700;9.210;2022-12-20T03:35:21;5.10;68.00
32139;DHT22;18644;48.700;9.210;2022-12-20T03:37:48;5.10;68.00
32139;DHT22;18644;48.700;9.210;2022-12-20T03:40:15;5.10;68.00
32139;DHT22;18644;48.700;9.210;2022-12-20T03:42:42;5.10;67.80
32139;DHT22;18644;48.700;9.210;2022-12-20T03:45:09;5.10;67.70
32139;DHT22;18644;48.700;9.210;2022-12-20T03:47:36;5.10;67.50
32139;DHT22;18644;48.700;9.210;2022-12-20T03:50:04;5.10;67.40
32139;DHT22;18644;48.700;9.210;2022-12-20T03:52:33;5.10;67.30
32139;DHT22;18644;48.700;9.210;2022-12-20T03:55:00;5.10;67.20
32139;DHT22;18644;48.700;9.210;2022-12-20T03:57:27;5.00;67.10
32139;DHT22;18644;48.700;9.210;2022-12-20T03:59:54;5.00;67.10
32139;DHT22;18644;48.700;9.210;2022-12-20T04:02:21;5.00;67.10
32139;DHT22;18644;48.700;9.210;2022-12-20T04:04:49;5.00;67.20
32139;DHT22;18644;48.700;9.210;2022-12-20T04:07:16;5.00;67.40
32139;DHT22;18644;48.700;9.210;2022-12-20T04:09:44;4.90;67.40
32139;DHT22;18644;48.700;9.210;2022-12-20T04:12:11;4.90;67.50
32139;DHT22;18644;48.700;9.210;2022-12-20T04:14:38;4.90;67.50
32139;DHT22;18644;48.700;9.210;2022-12-20T04:17:05;4.90;67.50
32139;DHT22;18644;48.700;9.210;2022-12-20T04:19:32;5.00;67.60
32139;DHT22;18644;48.700;9.210;2022-12-20T04:21:59;4.90;67.60
32139;DHT22;18644;48.700;9.210;2022-12-20T04:24:26;5.00;67.60
32139;DHT22;18644;48.700;9.210;2022-12-20T04:26:54;4.90;67.60
32139;DHT22;18644;48.700;9.210;2022-12-20T04:29:21;5.00;67.70
32139;DHT22;18644;48.700;9.210;2022-12-20T04:31:48;5.00;67.70
32139;DHT22;18644;48.700;9.210;2022-12-20T04:34:15;5.00;67.70
32139;DHT22;18644;48.700;9.210;2022-12-20T04:36:41;5.00;67.70
32139;DHT22;18644;48.700;9.210;2022-12-20T04:39:08;5.00;68.00
32139;DHT22;18644;48.700;9.210;2022-12-20T04:41:35;5.00;68.10
32139;DHT22;18644;48.700;9.210;2022-12-20T04:44:04;5.00;68.30
32139;DHT22;18644;48.700;9.210;2022-12-20T04:46:31;5.00;68.40
32139;DHT22;18644;48.700;9.210;2022-12-20T04:48:57;5.10;68.50
32139;DHT22;18644;48.700;9.210;2022-12-20T04:51:24;5.10;68.60
32139;DHT22;18644;48.700;9.210;2022-12-20T04:53:52;5.10;68.60
32139;DHT22;18644;48.700;9.210;2022-12-20T04:56:19;5.10;68.60
32139;DHT22;18644;48.700;9.210;2022-12-20T04:58:49;5.20;68.70
32139;DHT22;18644;48.700;9.210;2022-12-20T05:01:19;5.20;68.70
32139;DHT22;18644;48.700;9.210;2022-12-20T05:03:46;5.20;68.60
32139;DHT22;18644;48.700;9.210;2022-12-20T05:06:13;5.20;68.50
32139;DHT22;18644;48.700;9.210;2022-12-20T05:08:40;5.20;68.50
32139;DHT22;18644;48.700;9.210;2022-12-20T05:11:08;5.20;68.50
32139;DHT22;18644;48.700;9.210;2022-12-20T05:13:35;5.20;68.40
32139;DHT22;18644;48.700;9.210;2022-12-20T05:16:02;5.30;68.50
32139;DHT22;18644;48.700;9.210;2022-12-20T05:18:31;5.30;68.50
32139;DHT22;18644;48.700;9.210;2022-12-20T05:20:59;5.30;68.50
32139;DHT22;18644;48.700;9.210;2022-12-20T05:23:44;5.40;68.60
32139;DHT22;18644;48.700;9.210;2022-12-20T05:26:31;5.30;68.50
32139;DHT22;18644;48.700;9.210;2022-12-20T05:28:59;5.40;68.50
32139;DHT22;18644;48.700;9.210;2022-12-20T05:31:26;5.40;68.50
32139;DHT22;18644;48.700;9.210;2022-12-20T05:33:55;5.40;68.50
32139;DHT22;18644;48.700;9.210;2022-12-20T05:36:22;5.40;68.60
32139;DHT22;18644;48.700;9.210;2022-12-20T05:38:48;5.40;68.60
32139;DHT22;18644;48.700;9.210;2022-12-20T05:41:16;5.40;68.60
32139;DHT22;18644;48.700;9.210;2022-12-20T05:43:42;5.50;68.70
32139;DHT22;18644;48.700;9.210;2022-12-20T05:46:09;5.50;68.60
32139;DHT22;18644;48.700;9.210;2022-12-20T05:48:36;5.50;68.60
32139;DHT22;18644;48.700;9.210;2022-12-20T05:51:05;5.50;68.50
32139;DHT22;18644;48.700;9.210;2022-12-20T05:53:32;5.50;68.50
32139;DHT22;18644;48.700;9.210;2022-12-20T05:56:02;5.60;68.60
32139;DHT22;18644;48.700;9.210;2022-12-20T05:58:29;5.60;68.70
32139;DHT22;18644;48.700;9.210;2022-12-20T06:00:58;5.60;68.70
32139;DHT22;18644;48.700;9.210;2022-12-20T06:03:26;5.60;68.80
32139;DHT22;18644;48.700;9.210;2022-12-20T06:05:53;5.60;68.80
32139;DHT22;18644;48.700;9.210;2022-12-20T06:08:21;5.60;68.70
32139;DHT22;18644;48.700;9.210;2022-12-20T06:10:49;5.60;68.70
32139;DHT22;18644;48.700;9.210;2022-12-20T06:13:17;5.60;68.70
32139;DHT22;18644;48.700;9.210;2022-12-20T06:15:44;5.60;68.70
32139;DHT22;18644;48.700;9.210;2022-12-20T06:18:12;5.60;68.70
32139;DHT22;18644;48.700;9.210;2022-12-20T06:20:39;5.60;68.70
32139;DHT22;18644;48.700;9.210;2022-12-20T06:23:06;5.70;68.70
32139;DHT22;18644;48.700;9.210;2022-12-20T06:25:35;5.70;68.70
32139;DHT22;18644;48.700;9.210;2022-12-20T06:28:04;5.70;68.70
32139;DHT22;18644;48.700;9.210;2022-12-20T06:30:32;5.70;68.70
32139;DHT22;18644;48.700;9.210;2022-12-20T06:32:59;5.70;68.70
32139;DHT22;18644;48.700;9.210;2022-12-20T06:35:26;5.70;68.60
32139;DHT22;18644;48.700;9.210;2022-12-20T06:37:53;5.70;68.60
32139;DHT22;18644;48.700;9.210;2022-12-20T06:40:20;5.70;68.50
32139;DHT22;18644;48.700;9.210;2022-12-20T06:42:49;5.70;68.50
32139;DHT22;18644;48.700;9.210;2022-12-20T06:45:16;5.70;68.60
32139;DHT22;18644;48.700;9.210;2022-12-20T06:47:43;5.70;68.60
32139;DHT22;18644;48.700;9.210;2022-12-20T06:50:10;5.70;68.70
32139;DHT22;18644;48.700;9.210;2022-12-20T06:52:37;5.70;68.60
32139;DHT22;18644;48.700;9.210;2022-12-20T06:55:04;5.70;68.60
32139;DHT22;18644;48.700;9.210;2022-12-20T06:57:31;5.70;68.60
32139;DHT22;18644;48.700;9.210;2022-12-20T06:59:59;5.70;68.60
32139;DHT22;18644;48.700;9.210;2022-12-20T07:02:26;5.70;68.70
32139;DHT22;18644;48.700;9.210;2022-12-20T07:04:54;5.70;68.60
32139;DHT22;18644;48.700;9.210;2022-12-20T07:07:21;5.80;68.60
32139;DHT22;18644;48.700;9.210;2022-12-20T07:09:48;5.80;68.60
32139;DHT22;18644;48.700;9.210;2022-12-20T07:12:15;5.70;68.40
32139;DHT22;18644;48.700;9.210;2022-12-20T07:14:42;5.80;68.40
32139;DHT22;18644;48.700;9.210;2022-12-20T07:17:10;5.70;68.40
32139;DHT22;18644;48.700;9.210;2022-12-20T07:19:37;5.70;68.50
32139;DHT22;18644;48.700;9.210;2022-12-20T07:22:04;5.70;68.50
32139;DHT22;18644;48.700;9.210;2022-12-20T07:24:31;5.70;68.60
32139;DHT22;18644;48.700;9.210;2022-12-20T07:26:58;5.80;68.50
32139;DHT22;18644;48.700;9.210;2022-12-20T07:29:26;5.80;68.50
32139;DHT22;18644;48.700;9.210;2022-12-20T07:31:53;5.80;68.40
32139;DHT22;18644;48.700;9.210;2022-12-20T07:34:21;5.80;68.50
32139;DHT22;18644;48.700;9.210;2022-12-20T07:36:48;5.80;68.50
32139;DHT22;18644;48.700;9.210;2022-12-20T07:39:15;5.80;68.60
32139;DHT22;18644;48.700;9.210;2022-12-20T07:41:43;5.80;68.60
32139;DHT22;18644;48.700;9.210;2022-12-20T07:44:11;5.80;68.60
32139;DHT22;18644;48.700;9.210;2022-12-20T07:46:38;5.80;68.60
32139;DHT22;18644;48.700;9.210;2022-12-20T07:49:05;5.80;68.70
32139;DHT22;18644;48.700;9.210;2022-12-20T07:51:36;5.80;68.80
32139;DHT22;18644;48.700;9.210;2022-12-20T07:54:05;5.80;68.90
32139;DHT22;18644;48.700;9.210;2022-12-20T07:56:33;5.90;69.30
32139;DHT22;18644;48.700;9.210;2022-12-20T07:59:05;5.90;69.60
32139;DHT22;18644;48.700;9.210;2022-12-20T08:01:32;5.90;68.80
32139;DHT22;18644;48.700;9.210;2022-12-20T08:04:03;5.90;68.80
32139;DHT22;18644;48.700;9.210;2022-12-20T08:06:33;5.90;69.00
32139;DHT22;18644;48.700;9.210;2022-12-20T08:09:04;6.00;69.00
32139;DHT22;18644;48.700;9.210;2022-12-20T08:11:33;6.00;69.00
32139;DHT22;18644;48.700;9.210;2022-12-20T08:14:01;6.00;69.10
32139;DHT22;18644;48.700;9.210;2022-12-20T08:16:28;6.10;69.20
32139;DHT22;18644;48.700;9.210;2022-12-20T08:18:56;6.10;69.10
32139;DHT22;18644;48.700;9.210;2022-12-20T08:21:23;6.20;69.10
32139;DHT22;18644;48.700;9.210;2022-12-20T08:23:51;6.20;69.00
32139;DHT22;18644;48.700;9.210;2022-12-20T08:26:18;6.20;68.90
32139;DHT22;18644;48.700;9.210;2022-12-20T08:28:45;6.20;68.90
32139;DHT22;18644;48.700;9.210;2022-12-20T08:31:12;6.30;68.80
32139;DHT22;18644;48.700;9.210;2022-12-20T08:33:40;6.30;68.80
32139;DHT22;18644;48.700;9.210;2022-12-20T08:36:09;6.30;68.80
32139;DHT22;18644;48.700;9.210;2022-12-20T08:38:37;6.30;68.80
32139;DHT22;18644;48.700;9.210;2022-12-20T08:41:08;6.30;68.70
32139;DHT22;18644;48.700;9.210;2022-12-20T08:43:38;6.40;68.80
32139;DHT22;18644;48.700;9.210;2022-12-20T08:46:06;6.40;68.80
32139;DHT22;18644;48.700;9.210;2022-12-20T08:48:33;6.40;68.90
32139;DHT22;18644;48.700;9.210;2022-12-20T08:51:02;6.40;69.00
32139;DHT22;18644;48.700;9.210;2022-12-20T08:53:31;6.50;69.10
32139;DHT22;18644;48.700;9.210;2022-12-20T08:56:03;6.50;69.10
32139;DHT22;18644;48.700;9.210;2022-12-20T08:58:32;6.50;69.10
32139;DHT22;18644;48.700;9.210;2022-12-20T09:01:00;6.60;69.10
32139;DHT22;18644;48.700;9.210;2022-12-20T09:03:29;6.60;69.10
32139;DHT22;18644;48.700;9.210;2022-12-20T09:05:57;6.70;69.10
32139;DHT22;18644;48.700;9.210;2022-12-20T09:08:24;6.80;69.20
32139;DHT22;18644;48.700;9.210;2022-12-20T09:10:51;6.80;69.20
32139;DHT22;18644;48.700;9.210;2022-12-20T09:13:18;6.90;69.20
32139;DHT22;18644;48.700;9.210;2022-12-20T09:15:47;6.90;69.20
32139;DHT22;18644;48.700;9.210;2022-12-20T09:18:14;6.90;69.10
32139;DHT22;18644;48.700;9.210;2022-12-20T09:20:42;7.00;69.00
32139;DHT22;18644;48.700;9.210;2022-12-20T09:23:09;7.10;68.90
32139;DHT22;18644;48.700;9.210;2022-12-20T09:25:37;7.10;68.70
32139;DHT22;18644;48.700;9.210;2022-12-20T09:28:04;7.10;68.70
32139;DHT22;18644;48.700;9.210;2022-12-20T09:30:31;7.20;68.70
32139;DHT22;18644;48.700;9.210;2022-12-20T09:32:59;7.30;68.60
32139;DHT22;18644;48.700;9.210;2022-12-20T09:35:26;7.20;68.70
32139;DHT22;18644;48.700;9.210;2022-12-20T09:37:53;7.30;68.40
32139;DHT22;18644;48.700;9.210;2022-12-20T09:40:23;7.30;68.20
32139;DHT22;18644;48.700;9.210;2022-12-20T09:42:50;7.30;68.10
32139;DHT22;18644;48.700;9.210;2022-12-20T09:45:23;7.30;68.10
32139;DHT22;18644;48.700;9.210;2022-12-20T09:47:51;7.40;68.20
32139;DHT22;18644;48.700;9.210;2022-12-20T09:50:24;7.40;68.00
32139;DHT22;18644;48.700;9.210;2022-12-20T09:53:03;7.40;67.90
32139;DHT22;18644;48.700;9.210;2022-12-20T09:55:41;7.40;67.80
32139;DHT22;18644;48.700;9.210;2022-12-20T09:58:20;7.50;67.80
32139;DHT22;18644;48.700;9.210;2022-12-20T10:00:52;7.50;67.90
32139;DHT22;18644;48.700;9.210;2022-12-20T10:03:22;7.50;68.10
32139;DHT22;18644;48.700;9.210;2022-12-20T10:05:55;7.60;68.30
32139;DHT22;18644;48.700;9.210;2022-12-20T10:08:45;7.60;68.50
32139;DHT22;18644;48.700;9.210;2022-12-20T10:11:33;7.70;68.50
32139;DHT22;18644;48.700;9.210;2022-12-20T10:14:15;7.80;68.40
32139;DHT22;18644;48.700;9.210;2022-12-20T10:17:04;7.80;68.30
32139;DHT22;18644;48.700;9.210;2022-12-20T10:22:42;8.00;68.30
32139;DHT22;18644;48.700;9.210;2022-12-20T10:25:16;8.00;68.10
32139;DHT22;18644;48.700;9.210;2022-12-20T10:27:46;8.10;68.10
32139;DHT22;18644;48.700;9.210;2022-12-20T10:30:14;8.10;68.00
32139;DHT22;18644;48.700;9.210;2022-12-20T10:32:44;8.10;68.00
32139;DHT22;18644;48.700;9.210;2022-12-20T10:35:22;8.20;67.90
32139;DHT22;18644;48.700;9.210;2022-12-20T10:37:58;8.20;67.80
32139;DHT22;18644;48.700;9.210;2022-12-20T10:40:30;8.20;67.60
32139;DHT22;18644;48.700;9.210;2022-12-20T10:42:59;8.30;67.60
32139;DHT22;18644;48.700;9.210;2022-12-20T10:45:32;8.30;67.70
32139;DHT22;18644;48.700;9.210;2022-12-20T10:48:02;8.30;67.60
32139;DHT22;18644;48.700;9.210;2022-12-20T10:50:31;8.30;67.60
32139;DHT22;18644;48.700;9.210;2022-12-20T10:53:18;8.30;68.30
32139;DHT22;18644;48.700;9.210;2022-12-20T10:55:46;8.40;67.50
32139;DHT22;18644;48.700;9.210;2022-12-20T10:58:16;8.40;67.30
32139;DHT22;18644;48.700;9.210;2022-12-20T11:00:44;8.40;67.20
32139;DHT22;18644;48.700;9.210;2022-12-20T11:03:15;8.40;67.30
32139;DHT22;18644;48.700;9.210;2022-12-20T11:05:53;8.40;67.40
32139;DHT22;18644;48.700;9.210;2022-12-20T11:08:23;8.40;67.30
32139;DHT22;18644;48.700;9.210;2022-12-20T11:11:10;8.40;67.30
32139;DHT22;18644;48.700;9.210;2022-12-20T11:13:39;8.40;67.10
32139;DHT22;18644;48.700;9.210;2022-12-20T11:16:25;8.40;67.00
32139;DHT22;18644;48.700;9.210;2022-12-20T11:19:02;8.40;67.00
32139;DHT22;18644;48.700;9.210;2022-12-20T11:21:41;8.40;67.20
32139;DHT22;18644;48.700;9.210;2022-12-20T11:24:20;8.50;67.60
32139;DHT22;18644;48.700;9.210;2022-12-20T11:27:02;8.60;67.80
32139;DHT22;18644;48.700;9.210;2022-12-20T11:30:03;8.70;67.90
32139;DHT22;18644;48.700;9.210;2022-12-20T11:32:44;8.70;67.70
32139;DHT22;18644;48.700;9.210;2022-12-20T11:35:32;8.80;67.60
32139;DHT22;18644;48.700;9.210;2022-12-20T11:38:13;8.90;67.60
32139;DHT22;18644;48.700;9.210;2022-12-20T11:40:51;9.00;67.60
32139;DHT22;18644;48.700;9.210;2022-12-20T11:43:30;9.10;67.50
32139;DHT22;18644;48.700;9.210;2022-12-20T11:46:15;9.10;67.40
32139;DHT22;18644;48.700;9.210;2022-12-20T11:49:02;9.20;67.30
32139;DHT22;18644;48.700;9.210;2022-12-20T11:51:44;9.30;67.10
32139;DHT22;18644;48.700;9.210;2022-12-20T11:54:15;9.30;66.90
32139;DHT22;18644;48.700;9.210;2022-12-20T11:56:46;9.30;66.60
32139;DHT22;18644;48.700;9.210;2022-12-20T11:59:19;9.40;66.50
32139;DHT22;18644;48.700;9.210;2022-12-20T12:01:52;9.40;66.40
32139;DHT22;18644;48.700;9.210;2022-12-20T12:04:26;9.40;66.50
32139;DHT22;18644;48.700;9.210;2022-12-20T12:06:58;9.40;66.50
32139;DHT22;18644;48.700;9.210;2022-12-20T12:09:31;9.40;66.40
32139;DHT22;18644;48.700;9.210;2022-12-20T12:12:08;9.40;66.10
32139;DHT22;18644;48.700;9.210;2022-12-20T12:14:45;9.40;65.80
32139;DHT22;18644;48.700;9.210;2022-12-20T12:17:23;9.40;65.60
32139;DHT22;18644;48.700;9.210;2022-12-20T12:19:55;9.40;65.50
32139;DHT22;18644;48.700;9.210;2022-12-20T12:22:34;9.30;65.30
32139;DHT22;18644;48.700;9.210;2022-12-20T12:25:03;9.30;65.20
32139;DHT22;18644;48.700;9.210;2022-12-20T12:27:37;9.20;65.10
32139;DHT22;18644;48.700;9.210;2022-12-20T12:30:05;9.20;65.10
32139;DHT22;18644;48.700;9.210;2022-12-20T12:32:40;9.10;65.20
32139;DHT22;18644;48.700;9.210;2022-12-20T12:35:24;9.10;65.40
32139;DHT22;18644;48.700;9.210;2022-12-20T12:38:42;9.00;65.40
32139;DHT22;18644;48.700;9.210;2022-12-20T12:41:45;9.00;65.30
32139;DHT22;18644;48.700;9.210;2022-12-20T12:44:44;9.00;65.30
32139;DHT22;18644;48.700;9.210;2022-12-20T12:47:15;9.00;65.20
32139;DHT22;18644;48.700;9.210;2022-12-20T12:49:48;8.90;65.30
32139;DHT22;18644;48.700;9.210;2022-12-20T12:52:28;8.90;65.50
32139;DHT22;18644;48.700;9.210;2022-12-20T12:55:43;8.90;65.70
32139;DHT22;18644;48.700;9.210;2022-12-20T13:01:05;9.00;66.00
32139;DHT22;18644;48.700;9.210;2022-12-20T13:03:39;9.00;66.10
32139;DHT22;18644;48.700;9.210;2022-12-20T13:06:42;9.00;66.20
32139;DHT22;18644;48.700;9.210;2022-12-20T13:09:41;9.00;66.10
32139;DHT22;18644;48.700;9.210;2022-12-20T13:15:50;9.10;66.20
32139;DHT22;18644;48.700;9.210;2022-12-20T13:18:37;9.10;66.10
32139;DHT22;18644;48.700;9.210;2022-12-20T13:21:30;9.10;65.90
32139;DHT22;18644;48.700;9.210;2022-12-20T13:27:17;9.20;66.00
32139;DHT22;18644;48.700;9.210;2022-12-20T13:30:22;9.20;65.80
32139;DHT22;18644;48.700;9.210;2022-12-20T13:33:18;9.20;65.40
32139;DHT22;18644;48.700;9.210;2022-12-20T13:39:07;9.20;65.40
32139;DHT22;18644;48.700;9.210;2022-12-20T13:42:16;9.20;65.40
32139;DHT22;18644;48.700;9.210;2022-12-20T13:44:49;9.10;65.30
32139;DHT22;18644;48.700;9.210;2022-12-20T13:47:33;9.10;65.30
32139;DHT22;18644;48.700;9.210;2022-12-20T13:50:28;9.10;65.40
32139;DHT22;18644;48.700;9.210;2022-12-20T13:53:01;9.10;65.30
32139;DHT22;18644;48.700;9.210;2022-12-20T13:55:33;9.10;65.20
32139;DHT22;18644;48.700;9.210;2022-12-20T13:58:09;9.10;65.10
32139;DHT22;18644;48.700;9.210;2022-12-20T14:00:38;9.10;65.00
32139;DHT22;18644;48.700;9.210;2022-12-20T14:03:13;9.00;64.80
32139;DHT22;18644;48.700;9.210;2022-12-20T14:05:45;8.90;64.90
32139;DHT22;18644;48.700;9.210;2022-12-20T14:08:16;8.90;65.10
32139;DHT22;18644;48.700;9.210;2022-12-20T14:10:44;8.90;65.40
32139;DHT22;18644;48.700;9.210;2022-12-20T14:13:20;8.90;65.60
32139;DHT22;18644;48.700;9.210;2022-12-20T14:15:48;8.90;65.70
32139;DHT22;18644;48.700;9.210;2022-12-20T14:18:17;9.00;65.90
32139;DHT22;18644;48.700;9.210;2022-12-20T14:20:47;9.00;66.00
32139;DHT22;18644;48.700;9.210;2022-12-20T14:23:19;9.00;66.20
32139;DHT22;18644;48.700;9.210;2022-12-20T14:25:49;9.00;66.10
32139;DHT22;18644;48.700;9.210;2022-12-20T14:28:26;9.10;65.80
32139;DHT22;18644;48.700;9.210;2022-12-20T14:30:56;9.10;65.60
32139;DHT22;18644;48.700;9.210;2022-12-20T14:33:29;9.10;65.40
32139;DHT22;18644;48.700;9.210;2022-12-20T14:36:08;9.10;65.40
32139;DHT22;18644;48.700;9.210;2022-12-20T14:38:44;9.10;65.40
32139;DHT22;18644;48.700;9.210;2022-12-20T14:41:33;9.00;65.40
32139;DHT22;18644;48.700;9.210;2022-12-20T14:44:11;9.00;65.50
32139;DHT22;18644;48.700;9.210;2022-12-20T14:46:47;9.00;65.50
32139;DHT22;18644;48.700;9.210;2022-12-20T14:49:21;9.00;65.40
32139;DHT22;18644;48.700;9.210;2022-12-20T14:51:52;8.90;65.20
32139;DHT22;18644;48.700;9.210;2022-12-20T14:54:34;8.90;65.00
32139;DHT22;18644;48.700;9.210;2022-12-20T14:57:01;8.90;64.70
32139;DHT22;18644;48.700;9.210;2022-12-20T14:59:29;8.80;64.60
32139;DHT22;18644;48.700;9.210;2022-12-20T15:01:57;8.80;64.60
32139;DHT22;18644;48.700;9.210;2022-12-20T15:04:30;8.70;64.50
32139;DHT22;18644;48.700;9.210;2022-12-20T15:06:58;8.70;64.50
32139;DHT22;18644;48.700;9.210;2022-12-20T15:09:26;8.60;64.40
32139;DHT22;18644;48.700;9.210;2022-12-20T15:11:55;8.60;64.40
32139;DHT22;18644;48.700;9.210;2022-12-20T15:14:34;8.60;64.40
32139;DHT22;18644;48.700;9.210;2022-12-20T15:17:02;8.50;64.30
32139;DHT22;18644;48.700;9.210;2022-12-20T15:19:31;8.40;64.40
32139;DHT22;18644;48.700;9.210;2022-12-20T15:21:59;8.40;64.60
32139;DHT22;18644;48.700;9.210;2022-12-20T15:24:27;8.30;64.60
32139;DHT22;18644;48.700;9.210;2022-12-20T15:26:56;8.30;64.60
32139;DHT22;18644;48.700;9.210;2022-12-20T15:29:24;8.20;64.60
32139;DHT22;18644;48.700;9.210;2022-12-20T15:31:56;8.20;64.50
32139;DHT22;18644;48.700;9.210;2022-12-20T15:34:29;8.20;64.50
32139;DHT22;18644;48.700;9.210;2022-12-20T15:36:59;8.10;64.50
32139;DHT22;18644;48.700;9.210;2022-12-20T15:39:27;8.00;64.50
32139;DHT22;18644;48.700;9.210;2022-12-20T15:41:57;8.00;64.60
32139;DHT22;18644;48.700;9.210;2022-12-20T15:44:28;7.90;65.00
32139;DHT22;18644;48.700;9.210;2022-12-20T15:46:55;7.90;65.30
32139;DHT22;18644;48.700;9.210;2022-12-20T15:49:26;7.90;65.60
32139;DHT22;18644;48.700;9.210;2022-12-20T15:51:55;7.90;65.80
32139;DHT22;18644;48.700;9.210;2022-12-20T15:54:26;7.80;65.60
32139;DHT22;18644;48.700;9.210;2022-12-20T15:56:58;7.80;65.60
32139;DHT22;18644;48.700;9.210;2022-12-20T15:59:27;7.80;65.60
32139;DHT22;18644;48.700;9.210;2022-12-20T16:01:54;7.80;66.40
32139;DHT22;18644;48.700;9.210;2022-12-20T16:04:22;7.80;65.60
32139;DHT22;18644;48.700;9.210;2022-12-20T16:06:50;7.70;65.30
32139;DHT22;18644;48.700;9.210;2022-12-20T16:09:18;7.70;65.30
32139;DHT22;18644;48.700;9.210;2022-12-20T16:11:46;7.70;65.20
32139;DHT22;18644;48.700;9.210;2022-12-20T16:14:18;7.70;65.20
32139;DHT22;18644;48.700;9.210;2022-12-20T16:16:46;7.60;65.10
32139;DHT22;18644;48.700;9.210;2022-12-20T16:19:14;7.60;65.10
32139;DHT22;18644;48.700;9.210;2022-12-20T16:21:45;7.60;65.00
32139;DHT22;18644;48.700;9.210;2022-12-20T16:24:15;7.50;65.20
32139;DHT22;18644;48.700;9.210;2022-12-20T16:26:43;7.50;65.40
32139;DHT22;18644;48.700;9.210;2022-12-20T16:29:10;7.50;65.50
32139;DHT22;18644;48.700;9.210;2022-12-20T16:31:40;7.40;65.70
32139;DHT22;18644;48.700;9.210;2022-12-20T16:34:11;7.40;66.10